sensor_id;sensor_type;location;lat;lon;timestamp;P1;durP1;ratioP1;P2;durP2;ratioP2
44750;SDS011;30477;48.224;11.470;2022-07-29T00:02:20;5.30;;;1.83;;
44750;SDS011;30477;48.224;11.470;2022-07-29T00:04:46;2.13;;;1.93;;
44750;SDS011;30477;48.224;11.470;2022-07-29T00:07:11;2.87;;;2.17;;
44750;SDS011;30477;48.224;11.470;2022-07-29T00:09:36;2.73;;;1.97;;
44750;SDS011;30477;48.224;11.470;2022-07-29T00:12:02;4.17;;;1.93;;
44750;SDS011;30477;48.224;11.470;2022-07-29T00:14:27;2.17;;;2.00;;
44750;SDS011;30477;48.224;11.470;2022-07-29T00:16:53;3.47;;;2.00;;
44750;SDS011;30477;48.224;11.470;2022-07-29T00:19:19;3.28;;;2.10;;
44750;SDS011;30477;48.224;11.470;2022-07-29T00:21:45;3.15;;;2.10;;
44750;SDS011;30477;48.224;11.470;2022-07-29T00:24:10;3.33;;;1.90;;
44750;SDS011;30477;48.224;11.470;2022-07-29T00:26:35;3.63;;;2.60;;
44750;SDS011;30477;48.224;11.470;2022-07-29T00:29:02;2.73;;;2.03;;
44750;SDS011;30477;48.224;11.470;2022-07-29T00:31:28;3.17;;;2.47;;
44750;SDS011;30477;48.224;11.470;2022-07-29T00:33:54;3.00;;;2.10;;
44750;SDS011;30477;48.224;11.470;2022-07-29T00:36:20;3.05;;;2.00;;
44750;SDS011;30477;48.224;11.470;2022-07-29T00:38:46;3.15;;;2.10;;
44750;SDS011;30477;48.224;11.470;2022-07-29T00:41:12;3.42;;;2.30;;
44750;SDS011;30477;48.224;11.470;2022-07-29T00:43:38;2.78;;;2.22;;
44750;SDS011;30477;48.224;11.470;2022-07-29T00:46:03;4.50;;;2.17;;
44750;SDS011;30477;48.224;11.470;2022-07-29T00:48:29;2.40;;;2.20;;
44750;SDS011;30477;48.224;11.470;2022-07-29T00:50:55;4.07;;;2.33;;
44750;SDS011;30477;48.224;11.470;2022-07-29T00:53:22;4.32;;;2.30;;
44750;SDS011;30477;48.224;11.470;2022-07-29T00:55:49;2.40;;;2.17;;
44750;SDS011;30477;48.224;11.470;2022-07-29T00:58:15;2.15;;;1.92;;
44750;SDS011;30477;48.224;11.470;2022-07-29T01:00:41;2.75;;;2.10;;
44750;SDS011;30477;48.224;11.470;2022-07-29T01:03:07;3.13;;;1.98;;
44750;SDS011;30477;48.224;11.470;2022-07-29T01:05:32;2.75;;;2.00;;
44750;SDS011;30477;48.224;11.470;2022-07-29T01:07:59;3.90;;;2.20;;
44750;SDS011;30477;48.224;11.470;2022-07-29T01:10:25;4.07;;;2.17;;
44750;SDS011;30477;48.224;11.470;2022-07-29T01:12:52;4.07;;;2.22;;
44750;SDS011;30477;48.224;11.470;2022-07-29T01:15:22;5.60;;;2.28;;
44750;SDS011;30477;48.224;11.470;2022-07-29T01:18:32;3.63;;;2.28;;
44750;SDS011;30477;48.224;11.470;2022-07-29T01:29:10;2.40;;;2.20;;
44750;SDS011;30477;48.224;11.470;2022-07-29T01:32:01;2.95;;;2.35;;
44750;SDS011;30477;48.224;11.470;2022-07-29T01:37:15;2.57;;;2.37;;
44750;SDS011;30477;48.224;11.470;2022-07-29T01:39:47;3.60;;;2.40;;
44750;SDS011;30477;48.224;11.470;2022-07-29T01:48:30;2.83;;;2.40;;
44750;SDS011;30477;48.224;11.470;2022-07-29T01:51:29;3.33;;;2.53;;
44750;SDS011;30477;48.224;11.470;2022-07-29T01:54:14;2.58;;;2.38;;
44750;SDS011;30477;48.224;11.470;2022-07-29T01:56:45;3.67;;;2.30;;
44750;SDS011;30477;48.224;11.470;2022-07-29T01:59:13;3.75;;;2.20;;
44750;SDS011;30477;48.224;11.470;2022-07-29T02:01:41;3.05;;;2.55;;
44750;SDS011;30477;48.224;11.470;2022-07-29T02:04:09;4.13;;;2.30;;
44750;SDS011;30477;48.224;11.470;2022-07-29T02:06:37;2.50;;;2.30;;
44750;SDS011;30477;48.224;11.470;2022-07-29T02:09:05;3.35;;;2.30;;
44750;SDS011;30477;48.224;11.470;2022-07-29T02:11:33;2.75;;;2.35;;
44750;SDS011;30477;48.224;11.470;2022-07-29T02:14:00;3.25;;;2.78;;
44750;SDS011;30477;48.224;11.470;2022-07-29T02:16:26;4.20;;;2.50;;
44750;SDS011;30477;48.224;11.470;2022-07-29T02:18:55;2.97;;;2.67;;
44750;SDS011;30477;48.224;11.470;2022-07-29T02:21:23;4.00;;;2.63;;
44750;SDS011;30477;48.224;11.470;2022-07-29T02:23:52;3.47;;;2.78;;
44750;SDS011;30477;48.224;11.470;2022-07-29T02:26:22;4.28;;;2.47;;
44750;SDS011;30477;48.224;11.470;2022-07-29T02:28:50;5.40;;;2.67;;
44750;SDS011;30477;48.224;11.470;2022-07-29T02:31:19;4.65;;;2.70;;
44750;SDS011;30477;48.224;11.470;2022-07-29T02:33:48;2.60;;;2.40;;
44750;SDS011;30477;48.224;11.470;2022-07-29T02:36:15;2.70;;;2.50;;
44750;SDS011;30477;48.224;11.470;2022-07-29T02:41:27;4.65;;;2.90;;
44750;SDS011;30477;48.224;11.470;2022-07-29T02:43:56;3.30;;;2.70;;
44750;SDS011;30477;48.224;11.470;2022-07-29T02:46:30;4.95;;;2.90;;
44750;SDS011;30477;48.224;11.470;2022-07-29T02:49:08;4.40;;;2.80;;
44750;SDS011;30477;48.224;11.470;2022-07-29T02:51:44;4.30;;;3.10;;
44750;SDS011;30477;48.224;11.470;2022-07-29T02:54:16;3.88;;;2.67;;
44750;SDS011;30477;48.224;11.470;2022-07-29T02:57:03;3.35;;;2.70;;
44750;SDS011;30477;48.224;11.470;2022-07-29T02:59:36;3.97;;;2.80;;
44750;SDS011;30477;48.224;11.470;2022-07-29T03:02:06;4.82;;;2.85;;
44750;SDS011;30477;48.224;11.470;2022-07-29T03:04:33;3.13;;;2.83;;
44750;SDS011;30477;48.224;11.470;2022-07-29T03:07:00;3.60;;;2.95;;
44750;SDS011;30477;48.224;11.470;2022-07-29T03:09:26;3.60;;;2.83;;
44750;SDS011;30477;48.224;11.470;2022-07-29T03:14:19;3.30;;;3.00;;
44750;SDS011;30477;48.224;11.470;2022-07-29T03:16:45;3.38;;;2.70;;
44750;SDS011;30477;48.224;11.470;2022-07-29T03:19:11;3.78;;;3.13;;
44750;SDS011;30477;48.224;11.470;2022-07-29T03:24:03;5.72;;;3.25;;
44750;SDS011;30477;48.224;11.470;2022-07-29T03:26:28;3.00;;;2.70;;
44750;SDS011;30477;48.224;11.470;2022-07-29T03:28:54;3.30;;;3.00;;
44750;SDS011;30477;48.224;11.470;2022-07-29T03:31:19;3.77;;;3.13;;
44750;SDS011;30477;48.224;11.470;2022-07-29T03:33:45;4.10;;;2.77;;
44750;SDS011;30477;48.224;11.470;2022-07-29T03:36:10;3.43;;;3.13;;
44750;SDS011;30477;48.224;11.470;2022-07-29T03:38:35;5.00;;;3.00;;
44750;SDS011;30477;48.224;11.470;2022-07-29T03:41:07;4.55;;;3.47;;
44750;SDS011;30477;48.224;11.470;2022-07-29T03:43:36;3.28;;;2.97;;
44750;SDS011;30477;48.224;11.470;2022-07-29T03:46:05;4.28;;;2.88;;
44750;SDS011;30477;48.224;11.470;2022-07-29T03:48:32;4.22;;;3.17;;
44750;SDS011;30477;48.224;11.470;2022-07-29T03:51:01;5.53;;;3.33;;
44750;SDS011;30477;48.224;11.470;2022-07-29T03:53:27;4.70;;;3.27;;
44750;SDS011;30477;48.224;11.470;2022-07-29T03:55:54;4.72;;;3.05;;
44750;SDS011;30477;48.224;11.470;2022-07-29T03:58:24;5.05;;;3.38;;
44750;SDS011;30477;48.224;11.470;2022-07-29T04:00:51;4.80;;;3.13;;
44750;SDS011;30477;48.224;11.470;2022-07-29T04:03:18;6.00;;;3.40;;
44750;SDS011;30477;48.224;11.470;2022-07-29T04:05:44;4.50;;;3.50;;
44750;SDS011;30477;48.224;11.470;2022-07-29T04:08:09;4.20;;;3.00;;
44750;SDS011;30477;48.224;11.470;2022-07-29T04:10:34;5.73;;;3.23;;
44750;SDS011;30477;48.224;11.470;2022-07-29T04:13:00;3.83;;;3.50;;
44750;SDS011;30477;48.224;11.470;2022-07-29T04:15:25;3.77;;;3.27;;
44750;SDS011;30477;48.224;11.470;2022-07-29T04:17:53;4.32;;;3.17;;
44750;SDS011;30477;48.224;11.470;2022-07-29T04:20:19;6.05;;;3.08;;
44750;SDS011;30477;48.224;11.470;2022-07-29T04:22:44;3.83;;;3.40;;
44750;SDS011;30477;48.224;11.470;2022-07-29T04:25:09;3.40;;;3.10;;
44750;SDS011;30477;48.224;11.470;2022-07-29T04:27:35;6.47;;;3.17;;
44750;SDS011;30477;48.224;11.470;2022-07-29T04:30:00;3.33;;;3.00;;
44750;SDS011;30477;48.224;11.470;2022-07-29T04:32:26;5.27;;;3.33;;
44750;SDS011;30477;48.224;11.470;2022-07-29T04:34:51;4.03;;;2.93;;
44750;SDS011;30477;48.224;11.470;2022-07-29T04:37:17;3.78;;;3.25;;
44750;SDS011;30477;48.224;11.470;2022-07-29T04:39:43;8.60;;;3.60;;
44750;SDS011;30477;48.224;11.470;2022-07-29T04:42:08;3.07;;;2.87;;
44750;SDS011;30477;48.224;11.470;2022-07-29T04:44:33;4.27;;;3.03;;
44750;SDS011;30477;48.224;11.470;2022-07-29T04:46:59;6.03;;;3.13;;
44750;SDS011;30477;48.224;11.470;2022-07-29T04:49:24;4.82;;;2.97;;
44750;SDS011;30477;48.224;11.470;2022-07-29T04:51:50;3.33;;;3.00;;
44750;SDS011;30477;48.224;11.470;2022-07-29T04:54:15;3.60;;;3.27;;
44750;SDS011;30477;48.224;11.470;2022-07-29T04:56:41;3.77;;;3.37;;
44750;SDS011;30477;48.224;11.470;2022-07-29T04:59:06;4.72;;;3.47;;
44750;SDS011;30477;48.224;11.470;2022-07-29T05:01:32;5.47;;;3.47;;
44750;SDS011;30477;48.224;11.470;2022-07-29T05:03:57;3.37;;;3.00;;
44750;SDS011;30477;48.224;11.470;2022-07-29T05:06:23;3.37;;;2.87;;
44750;SDS011;30477;48.224;11.470;2022-07-29T05:08:48;3.90;;;3.50;;
44750;SDS011;30477;48.224;11.470;2022-07-29T05:11:13;3.00;;;2.80;;
44750;SDS011;30477;48.224;11.470;2022-07-29T05:13:39;3.33;;;3.03;;
44750;SDS011;30477;48.224;11.470;2022-07-29T05:16:04;4.47;;;3.03;;
44750;SDS011;30477;48.224;11.470;2022-07-29T05:18:30;4.57;;;3.10;;
44750;SDS011;30477;48.224;11.470;2022-07-29T05:20:55;3.17;;;2.87;;
44750;SDS011;30477;48.224;11.470;2022-07-29T05:23:21;3.67;;;3.28;;
44750;SDS011;30477;48.224;11.470;2022-07-29T05:25:46;3.03;;;2.77;;
44750;SDS011;30477;48.224;11.470;2022-07-29T05:28:12;3.40;;;2.80;;
44750;SDS011;30477;48.224;11.470;2022-07-29T05:30:37;3.10;;;2.80;;
44750;SDS011;30477;48.224;11.470;2022-07-29T05:33:03;4.30;;;2.92;;
44750;SDS011;30477;48.224;11.470;2022-07-29T05:35:28;5.10;;;3.20;;
44750;SDS011;30477;48.224;11.470;2022-07-29T05:37:54;3.53;;;2.83;;
44750;SDS011;30477;48.224;11.470;2022-07-29T05:40:19;3.17;;;2.50;;
44750;SDS011;30477;48.224;11.470;2022-07-29T05:42:45;5.20;;;2.70;;
44750;SDS011;30477;48.224;11.470;2022-07-29T05:45:10;3.17;;;2.60;;
44750;SDS011;30477;48.224;11.470;2022-07-29T05:47:36;4.80;;;2.77;;
44750;SDS011;30477;48.224;11.470;2022-07-29T05:50:01;5.17;;;3.33;;
44750;SDS011;30477;48.224;11.470;2022-07-29T05:52:26;5.70;;;2.80;;
44750;SDS011;30477;48.224;11.470;2022-07-29T05:54:52;4.03;;;2.70;;
44750;SDS011;30477;48.224;11.470;2022-07-29T05:57:18;5.10;;;3.17;;
44750;SDS011;30477;48.224;11.470;2022-07-29T05:59:45;3.88;;;2.67;;
44750;SDS011;30477;48.224;11.470;2022-07-29T06:02:10;3.40;;;2.72;;
44750;SDS011;30477;48.224;11.470;2022-07-29T06:04:36;5.65;;;2.78;;
44750;SDS011;30477;48.224;11.470;2022-07-29T06:07:01;4.10;;;2.80;;
44750;SDS011;30477;48.224;11.470;2022-07-29T06:09:27;4.63;;;2.73;;
44750;SDS011;30477;48.224;11.470;2022-07-29T06:11:52;4.55;;;2.50;;
44750;SDS011;30477;48.224;11.470;2022-07-29T06:14:18;4.20;;;3.05;;
44750;SDS011;30477;48.224;11.470;2022-07-29T06:16:43;3.23;;;2.20;;
44750;SDS011;30477;48.224;11.470;2022-07-29T06:19:08;6.17;;;2.23;;
44750;SDS011;30477;48.224;11.470;2022-07-29T06:21:34;2.77;;;2.47;;
44750;SDS011;30477;48.224;11.470;2022-07-29T06:23:59;3.17;;;2.73;;
44750;SDS011;30477;48.224;11.470;2022-07-29T06:26:25;5.40;;;2.80;;
44750;SDS011;30477;48.224;11.470;2022-07-29T06:28:50;3.83;;;2.60;;
44750;SDS011;30477;48.224;11.470;2022-07-29T06:31:15;2.50;;;2.30;;
44750;SDS011;30477;48.224;11.470;2022-07-29T06:33:41;2.83;;;2.40;;
44750;SDS011;30477;48.224;11.470;2022-07-29T06:36:06;3.93;;;2.03;;
44750;SDS011;30477;48.224;11.470;2022-07-29T06:38:33;3.70;;;2.13;;
44750;SDS011;30477;48.224;11.470;2022-07-29T06:40:58;4.25;;;2.25;;
44750;SDS011;30477;48.224;11.470;2022-07-29T06:43:31;2.58;;;2.38;;
44750;SDS011;30477;48.224;11.470;2022-07-29T06:46:02;3.35;;;2.50;;
44750;SDS011;30477;48.224;11.470;2022-07-29T06:48:32;2.50;;;2.30;;
44750;SDS011;30477;48.224;11.470;2022-07-29T06:50:58;5.50;;;2.35;;
44750;SDS011;30477;48.224;11.470;2022-07-29T06:53:24;2.30;;;2.10;;
44750;SDS011;30477;48.224;11.470;2022-07-29T06:58:15;2.40;;;2.08;;
44750;SDS011;30477;48.224;11.470;2022-07-29T07:00:43;5.05;;;2.22;;
44750;SDS011;30477;48.224;11.470;2022-07-29T07:03:09;5.60;;;2.28;;
44750;SDS011;30477;48.224;11.470;2022-07-29T07:08:00;4.03;;;2.40;;
44750;SDS011;30477;48.224;11.470;2022-07-29T07:12:51;4.05;;;2.38;;
44750;SDS011;30477;48.224;11.470;2022-07-29T07:17:46;4.75;;;2.30;;
44750;SDS011;30477;48.224;11.470;2022-07-29T07:20:13;2.58;;;1.90;;
44750;SDS011;30477;48.224;11.470;2022-07-29T07:25:04;2.58;;;1.88;;
44750;SDS011;30477;48.224;11.470;2022-07-29T07:29:55;4.63;;;2.00;;
44750;SDS011;30477;48.224;11.470;2022-07-29T07:34:45;3.13;;;1.47;;
44750;SDS011;30477;48.224;11.470;2022-07-29T07:39:36;2.57;;;1.70;;
44750;SDS011;30477;48.224;11.470;2022-07-29T07:44:27;3.97;;;1.77;;
44750;SDS011;30477;48.224;11.470;2022-07-29T07:49:17;2.67;;;1.47;;
44750;SDS011;30477;48.224;11.470;2022-07-29T07:51:43;1.90;;;1.30;;
44750;SDS011;30477;48.224;11.470;2022-07-29T07:56:33;2.43;;;1.40;;
44750;SDS011;30477;48.224;11.470;2022-07-29T08:01:24;2.13;;;1.70;;
44750;SDS011;30477;48.224;11.470;2022-07-29T08:06:14;2.07;;;1.50;;
44750;SDS011;30477;48.224;11.470;2022-07-29T08:08:40;3.58;;;1.60;;
44750;SDS011;30477;48.224;11.470;2022-07-29T08:13:31;2.33;;;1.63;;
44750;SDS011;30477;48.224;11.470;2022-07-29T08:18:24;1.92;;;1.70;;
44750;SDS011;30477;48.224;11.470;2022-07-29T08:20:50;1.55;;;1.45;;
44750;SDS011;30477;48.224;11.470;2022-07-29T08:23:15;2.00;;;1.60;;
44750;SDS011;30477;48.224;11.470;2022-07-29T08:25:41;2.10;;;1.30;;
44750;SDS011;30477;48.224;11.470;2022-07-29T08:28:06;3.05;;;1.90;;
44750;SDS011;30477;48.224;11.470;2022-07-29T08:30:32;3.03;;;1.70;;
44750;SDS011;30477;48.224;11.470;2022-07-29T08:35:23;2.03;;;1.88;;
44750;SDS011;30477;48.224;11.470;2022-07-29T08:37:49;1.88;;;1.67;;
44750;SDS011;30477;48.224;11.470;2022-07-29T08:40:15;2.25;;;1.60;;
44750;SDS011;30477;48.224;11.470;2022-07-29T08:42:41;2.53;;;1.58;;
44750;SDS011;30477;48.224;11.470;2022-07-29T08:45:07;2.58;;;1.70;;
44750;SDS011;30477;48.224;11.470;2022-07-29T08:47:32;2.00;;;1.80;;
44750;SDS011;30477;48.224;11.470;2022-07-29T08:49:58;2.50;;;2.17;;
44750;SDS011;30477;48.224;11.470;2022-07-29T08:52:25;1.98;;;1.80;;
44750;SDS011;30477;48.224;11.470;2022-07-29T08:54:52;2.00;;;1.80;;
44750;SDS011;30477;48.224;11.470;2022-07-29T08:57:18;4.75;;;1.83;;
44750;SDS011;30477;48.224;11.470;2022-07-29T08:59:44;2.60;;;1.83;;
44750;SDS011;30477;48.224;11.470;2022-07-29T09:02:12;4.22;;;1.70;;
44750;SDS011;30477;48.224;11.470;2022-07-29T09:04:44;2.97;;;2.30;;
44750;SDS011;30477;48.224;11.470;2022-07-29T09:09:39;4.57;;;2.60;;
44750;SDS011;30477;48.224;11.470;2022-07-29T09:14:32;2.47;;;1.95;;
44750;SDS011;30477;48.224;11.470;2022-07-29T09:19:32;2.30;;;2.03;;
44750;SDS011;30477;48.224;11.470;2022-07-29T09:22:00;3.78;;;2.47;;
44750;SDS011;30477;48.224;11.470;2022-07-29T09:27:09;8.07;;;2.83;;
44750;SDS011;30477;48.224;11.470;2022-07-29T09:30:05;2.63;;;2.20;;
44750;SDS011;30477;48.224;11.470;2022-07-29T09:32:32;3.78;;;2.22;;
44750;SDS011;30477;48.224;11.470;2022-07-29T09:35:17;3.42;;;2.10;;
44750;SDS011;30477;48.224;11.470;2022-07-29T09:37:45;3.03;;;2.20;;
44750;SDS011;30477;48.224;11.470;2022-07-29T09:40:12;3.25;;;2.30;;
44750;SDS011;30477;48.224;11.470;2022-07-29T09:42:42;2.85;;;2.30;;
44750;SDS011;30477;48.224;11.470;2022-07-29T09:47:46;4.13;;;2.53;;
44750;SDS011;30477;48.224;11.470;2022-07-29T09:50:14;3.47;;;2.38;;
44750;SDS011;30477;48.224;11.470;2022-07-29T09:52:44;2.40;;;2.20;;
44750;SDS011;30477;48.224;11.470;2022-07-29T09:55:11;4.40;;;2.60;;
44750;SDS011;30477;48.224;11.470;2022-07-29T10:00:03;4.13;;;2.67;;
44750;SDS011;30477;48.224;11.470;2022-07-29T10:02:32;3.08;;;2.42;;
44750;SDS011;30477;48.224;11.470;2022-07-29T10:04:59;3.78;;;2.60;;
44750;SDS011;30477;48.224;11.470;2022-07-29T10:07:27;2.58;;;2.38;;
44750;SDS011;30477;48.224;11.470;2022-07-29T10:10:09;2.80;;;2.50;;
44750;SDS011;30477;48.224;11.470;2022-07-29T10:15:13;2.75;;;2.45;;
44750;SDS011;30477;48.224;11.470;2022-07-29T10:17:40;5.88;;;2.50;;
44750;SDS011;30477;48.224;11.470;2022-07-29T10:20:06;3.03;;;2.72;;
44750;SDS011;30477;48.224;11.470;2022-07-29T10:22:33;3.58;;;2.67;;
44750;SDS011;30477;48.224;11.470;2022-07-29T10:27:24;4.15;;;2.80;;
44750;SDS011;30477;48.224;11.470;2022-07-29T10:44:04;3.97;;;2.60;;
44750;SDS011;30477;48.224;11.470;2022-07-29T10:46:36;3.55;;;2.70;;
44750;SDS011;30477;48.224;11.470;2022-07-29T10:49:07;4.72;;;2.38;;
44750;SDS011;30477;48.224;11.470;2022-07-29T10:57:13;3.20;;;2.67;;
44750;SDS011;30477;48.224;11.470;2022-07-29T10:59:40;7.18;;;3.25;;
44750;SDS011;30477;48.224;11.470;2022-07-29T11:18:04;6.25;;;2.97;;
44750;SDS011;30477;48.224;11.470;2022-07-29T11:22:57;3.28;;;2.72;;
44750;SDS011;30477;48.224;11.470;2022-07-29T11:27:48;3.35;;;3.00;;
44750;SDS011;30477;48.224;11.470;2022-07-29T11:32:40;5.23;;;3.10;;
44750;SDS011;30477;48.224;11.470;2022-07-29T11:37:38;4.00;;;2.78;;
44750;SDS011;30477;48.224;11.470;2022-07-29T11:47:22;4.37;;;2.53;;
44750;SDS011;30477;48.224;11.470;2022-07-29T11:49:48;3.60;;;2.58;;
44750;SDS011;30477;48.224;11.470;2022-07-29T11:52:15;3.72;;;2.55;;
44750;SDS011;30477;48.224;11.470;2022-07-29T11:57:07;5.15;;;2.50;;
44750;SDS011;30477;48.224;11.470;2022-07-29T12:02:04;2.58;;;2.30;;
44750;SDS011;30477;48.224;11.470;2022-07-29T12:06:55;2.85;;;2.30;;
44750;SDS011;30477;48.224;11.470;2022-07-29T12:09:21;5.15;;;2.50;;
44750;SDS011;30477;48.224;11.470;2022-07-29T12:11:48;3.83;;;2.58;;
44750;SDS011;30477;48.224;11.470;2022-07-29T12:14:27;5.18;;;2.58;;
44750;SDS011;30477;48.224;11.470;2022-07-29T12:16:53;4.32;;;2.22;;
44750;SDS011;30477;48.224;11.470;2022-07-29T12:21:45;5.77;;;2.60;;
44750;SDS011;30477;48.224;11.470;2022-07-29T12:24:15;3.35;;;2.40;;
44750;SDS011;30477;48.224;11.470;2022-07-29T12:29:20;3.97;;;2.92;;
44750;SDS011;30477;48.224;11.470;2022-07-29T12:34:12;5.68;;;2.67;;
44750;SDS011;30477;48.224;11.470;2022-07-29T12:36:39;3.72;;;2.65;;
44750;SDS011;30477;48.224;11.470;2022-07-29T12:39:05;4.22;;;2.30;;
44750;SDS011;30477;48.224;11.470;2022-07-29T12:43:56;6.10;;;2.92;;
44750;SDS011;30477;48.224;11.470;2022-07-29T12:46:21;6.07;;;2.63;;
44750;SDS011;30477;48.224;11.470;2022-07-29T12:51:15;4.38;;;2.17;;
44750;SDS011;30477;48.224;11.470;2022-07-29T12:53:41;4.70;;;1.98;;
44750;SDS011;30477;48.224;11.470;2022-07-29T12:56:31;2.72;;;2.15;;
44750;SDS011;30477;48.224;11.470;2022-07-29T13:01:22;4.60;;;2.22;;
44750;SDS011;30477;48.224;11.470;2022-07-29T13:09:07;6.77;;;2.10;;
44750;SDS011;30477;48.224;11.470;2022-07-29T13:11:49;2.50;;;2.30;;
44750;SDS011;30477;48.224;11.470;2022-07-29T13:14:32;3.55;;;2.13;;
44750;SDS011;30477;48.224;11.470;2022-07-29T13:19:41;4.07;;;2.20;;
44750;SDS011;30477;48.224;11.470;2022-07-29T13:22:07;2.38;;;2.17;;
44750;SDS011;30477;48.224;11.470;2022-07-29T13:24:56;4.28;;;2.20;;
44750;SDS011;30477;48.224;11.470;2022-07-29T13:27:24;2.35;;;2.03;;
44750;SDS011;30477;48.224;11.470;2022-07-29T13:29:52;2.75;;;2.20;;
44750;SDS011;30477;48.224;11.470;2022-07-29T13:32:21;4.28;;;2.20;;
44750;SDS011;30477;48.224;11.470;2022-07-29T13:34:47;4.57;;;2.28;;
44750;SDS011;30477;48.224;11.470;2022-07-29T13:39:38;3.30;;;2.40;;
44750;SDS011;30477;48.224;11.470;2022-07-29T13:44:30;4.90;;;2.10;;
44750;SDS011;30477;48.224;11.470;2022-07-29T13:46:56;3.57;;;2.20;;
44750;SDS011;30477;48.224;11.470;2022-07-29T13:49:23;4.00;;;2.25;;
44750;SDS011;30477;48.224;11.470;2022-07-29T13:54:14;3.10;;;1.90;;
44750;SDS011;30477;48.224;11.470;2022-07-29T13:59:05;3.43;;;2.10;;
44750;SDS011;30477;48.224;11.470;2022-07-29T14:01:30;3.43;;;2.33;;
44750;SDS011;30477;48.224;11.470;2022-07-29T14:03:56;3.40;;;2.03;;
44750;SDS011;30477;48.224;11.470;2022-07-29T14:06:21;3.47;;;2.20;;
44750;SDS011;30477;48.224;11.470;2022-07-29T14:08:46;2.17;;;1.97;;
44750;SDS011;30477;48.224;11.470;2022-07-29T14:13:37;3.00;;;2.20;;
44750;SDS011;30477;48.224;11.470;2022-07-29T14:18:27;3.42;;;2.10;;
44750;SDS011;30477;48.224;11.470;2022-07-29T14:23:18;2.70;;;2.40;;
44750;SDS011;30477;48.224;11.470;2022-07-29T14:28:09;4.63;;;2.27;;
44750;SDS011;30477;48.224;11.470;2022-07-29T14:32:59;4.50;;;2.38;;
44750;SDS011;30477;48.224;11.470;2022-07-29T14:35:25;2.87;;;2.20;;
44750;SDS011;30477;48.224;11.470;2022-07-29T14:40:15;7.13;;;2.50;;
44750;SDS011;30477;48.224;11.470;2022-07-29T14:45:06;3.23;;;2.50;;
44750;SDS011;30477;48.224;11.470;2022-07-29T14:47:33;4.13;;;2.30;;
44750;SDS011;30477;48.224;11.470;2022-07-29T14:49:59;6.82;;;2.55;;
44750;SDS011;30477;48.224;11.470;2022-07-29T14:52:25;6.50;;;2.65;;
44750;SDS011;30477;48.224;11.470;2022-07-29T14:57:15;3.97;;;2.97;;
44750;SDS011;30477;48.224;11.470;2022-07-29T14:59:41;5.38;;;2.75;;
44750;SDS011;30477;48.224;11.470;2022-07-29T15:02:06;3.47;;;2.72;;
44750;SDS011;30477;48.224;11.470;2022-07-29T15:04:32;3.55;;;2.45;;
44750;SDS011;30477;48.224;11.470;2022-07-29T15:06:57;2.87;;;2.60;;
44750;SDS011;30477;48.224;11.470;2022-07-29T15:09:23;3.10;;;2.60;;
44750;SDS011;30477;48.224;11.470;2022-07-29T15:14:13;4.77;;;2.80;;
44750;SDS011;30477;48.224;11.470;2022-07-29T15:19:08;3.10;;;2.80;;
44750;SDS011;30477;48.224;11.470;2022-07-29T15:21:33;2.92;;;2.67;;
44750;SDS011;30477;48.224;11.470;2022-07-29T15:23:59;4.65;;;3.30;;
44750;SDS011;30477;48.224;11.470;2022-07-29T15:28:50;5.35;;;3.05;;
44750;SDS011;30477;48.224;11.470;2022-07-29T15:31:16;4.72;;;2.80;;
44750;SDS011;30477;48.224;11.470;2022-07-29T15:33:43;3.78;;;3.00;;
44750;SDS011;30477;48.224;11.470;2022-07-29T15:36:09;4.80;;;3.10;;
44750;SDS011;30477;48.224;11.470;2022-07-29T15:38:36;6.25;;;3.00;;
44750;SDS011;30477;48.224;11.470;2022-07-29T15:41:02;3.38;;;2.80;;
44750;SDS011;30477;48.224;11.470;2022-07-29T15:43:28;4.73;;;3.47;;
44750;SDS011;30477;48.224;11.470;2022-07-29T15:45:53;3.70;;;2.90;;
44750;SDS011;30477;48.224;11.470;2022-07-29T15:48:37;6.50;;;3.40;;
44750;SDS011;30477;48.224;11.470;2022-07-29T15:53:28;19.63;;;3.70;;
44750;SDS011;30477;48.224;11.470;2022-07-29T15:55:54;5.13;;;3.10;;
44750;SDS011;30477;48.224;11.470;2022-07-29T15:58:19;4.95;;;3.15;;
44750;SDS011;30477;48.224;11.470;2022-07-29T16:00:45;3.50;;;3.20;;
44750;SDS011;30477;48.224;11.470;2022-07-29T16:03:10;4.35;;;3.60;;
44750;SDS011;30477;48.224;11.470;2022-07-29T16:08:01;5.43;;;3.93;;
44750;SDS011;30477;48.224;11.470;2022-07-29T16:10:26;4.78;;;3.03;;
44750;SDS011;30477;48.224;11.470;2022-07-29T16:12:52;4.22;;;3.10;;
44750;SDS011;30477;48.224;11.470;2022-07-29T16:15:17;6.63;;;3.53;;
44750;SDS011;30477;48.224;11.470;2022-07-29T16:17:43;5.75;;;3.25;;
44750;SDS011;30477;48.224;11.470;2022-07-29T16:20:08;4.07;;;3.37;;
44750;SDS011;30477;48.224;11.470;2022-07-29T16:22:34;3.97;;;3.40;;
44750;SDS011;30477;48.224;11.470;2022-07-29T16:24:59;5.60;;;3.53;;
44750;SDS011;30477;48.224;11.470;2022-07-29T16:27:25;5.72;;;3.45;;
44750;SDS011;30477;48.224;11.470;2022-07-29T16:29:52;8.20;;;3.65;;
44750;SDS011;30477;48.224;11.470;2022-07-29T16:32:18;6.47;;;3.55;;
44750;SDS011;30477;48.224;11.470;2022-07-29T16:34:44;6.10;;;2.97;;
44750;SDS011;30477;48.224;11.470;2022-07-29T16:37:09;5.73;;;3.50;;
44750;SDS011;30477;48.224;11.470;2022-07-29T16:39:34;4.00;;;3.37;;
44750;SDS011;30477;48.224;11.470;2022-07-29T16:42:00;5.40;;;3.27;;
44750;SDS011;30477;48.224;11.470;2022-07-29T16:44:25;3.50;;;3.20;;
44750;SDS011;30477;48.224;11.470;2022-07-29T16:46:50;5.93;;;3.50;;
44750;SDS011;30477;48.224;11.470;2022-07-29T16:49:16;5.43;;;3.80;;
44750;SDS011;30477;48.224;11.470;2022-07-29T16:51:41;5.77;;;3.30;;
44750;SDS011;30477;48.224;11.470;2022-07-29T16:54:06;5.77;;;3.50;;
44750;SDS011;30477;48.224;11.470;2022-07-29T16:56:32;4.18;;;3.45;;
44750;SDS011;30477;48.224;11.470;2022-07-29T17:01:23;5.78;;;3.40;;
44750;SDS011;30477;48.224;11.470;2022-07-29T17:03:48;5.73;;;3.77;;
44750;SDS011;30477;48.224;11.470;2022-07-29T17:06:33;4.07;;;3.63;;
44750;SDS011;30477;48.224;11.470;2022-07-29T17:09:03;4.85;;;3.42;;
44750;SDS011;30477;48.224;11.470;2022-07-29T17:11:30;4.30;;;3.88;;
44750;SDS011;30477;48.224;11.470;2022-07-29T17:13:56;6.05;;;3.53;;
44750;SDS011;30477;48.224;11.470;2022-07-29T17:16:23;4.55;;;3.50;;
44750;SDS011;30477;48.224;11.470;2022-07-29T17:18:51;4.75;;;3.25;;
44750;SDS011;30477;48.224;11.470;2022-07-29T17:21:17;4.68;;;3.30;;
44750;SDS011;30477;48.224;11.470;2022-07-29T17:23:43;4.05;;;3.30;;
44750;SDS011;30477;48.224;11.470;2022-07-29T17:26:08;4.20;;;3.40;;
44750;SDS011;30477;48.224;11.470;2022-07-29T17:28:34;12.13;;;3.50;;
44750;SDS011;30477;48.224;11.470;2022-07-29T17:30:59;10.77;;;3.90;;
44750;SDS011;30477;48.224;11.470;2022-07-29T17:33:25;8.00;;;3.00;;
44750;SDS011;30477;48.224;11.470;2022-07-29T17:35:50;4.90;;;2.07;;
44750;SDS011;30477;48.224;11.470;2022-07-29T17:38:34;3.40;;;2.15;;
44750;SDS011;30477;48.224;11.470;2022-07-29T17:40:59;9.07;;;2.50;;
44750;SDS011;30477;48.224;11.470;2022-07-29T17:43:25;5.10;;;2.00;;
44750;SDS011;30477;48.224;11.470;2022-07-29T17:45:50;3.87;;;1.67;;
44750;SDS011;30477;48.224;11.470;2022-07-29T17:48:15;1.70;;;1.27;;
44750;SDS011;30477;48.224;11.470;2022-07-29T17:50:41;2.53;;;1.40;;
44750;SDS011;30477;48.224;11.470;2022-07-29T17:53:06;2.83;;;1.43;;
44750;SDS011;30477;48.224;11.470;2022-07-29T17:55:32;2.00;;;1.30;;
44750;SDS011;30477;48.224;11.470;2022-07-29T17:57:57;2.03;;;1.23;;
44750;SDS011;30477;48.224;11.470;2022-07-29T18:00:22;2.70;;;1.40;;
44750;SDS011;30477;48.224;11.470;2022-07-29T18:02:49;2.20;;;1.40;;
44750;SDS011;30477;48.224;11.470;2022-07-29T18:05:14;1.77;;;1.42;;